createdAt,value
2024-04-06T00:00:52.918Z,790.56
2024-04-06T00:01:52.918Z,787.77
2024-04-06T00:02:52.921Z,761.36
2024-04-06T00:03:53.907Z,739.59
2024-04-06T00:04:52.906Z,722.82
2024-04-06T00:05:52.878Z,711.30
2024-04-06T00:06:52.876Z,708.29
2024-04-06T00:07:59.657Z,708.29
2024-04-06T00:08:52.851Z,696.49
2024-04-06T00:09:52.856Z,678.15
2024-04-06T00:10:52.858Z,675.41
2024-04-06T00:11:52.816Z,680.21
2024-04-06T00:12:52.819Z,685.09
2024-04-06T00:13:52.818Z,692.17
2024-04-06T00:14:52.782Z,697.95
2024-04-06T00:15:52.800Z,718.94
2024-04-06T00:16:52.803Z,737.96
2024-04-06T00:17:52.809Z,755.78
2024-04-06T00:18:52.732Z,748.60
2024-04-06T00:19:52.714Z,747.35
2024-04-06T00:20:52.727Z,732.31
2024-04-06T00:21:52.704Z,725.96
2024-04-06T00:22:52.677Z,733.11
2024-04-06T00:23:52.695Z,742.05
2024-04-06T00:24:52.641Z,746.93
2024-04-06T00:25:52.639Z,747.35
2024-04-06T00:26:52.629Z,742.88
2024-04-06T00:27:52.613Z,722.04
2024-04-06T00:28:52.609Z,718.16
2024-04-06T00:29:52.634Z,709.79
2024-04-06T00:30:52.603Z,715.86
2024-04-06T00:31:52.573Z,730.71
2024-04-06T00:32:52.591Z,736.34
2024-04-06T00:33:52.555Z,747.02
2024-04-06T00:34:52.632Z,746.93
2024-04-06T00:35:52.590Z,729.91
2024-04-06T00:36:52.539Z,749.02
2024-04-06T00:37:52.514Z,766.15
2024-04-06T00:38:52.517Z,789.63
2024-04-06T00:39:52.489Z,793.84
2024-04-06T00:40:52.490Z,793.37
2024-04-06T00:41:52.516Z,815.58
2024-04-06T00:42:52.519Z,820.07
2024-04-06T00:43:52.477Z,830.23
2024-04-06T00:44:52.441Z,827.16
2024-04-06T00:45:52.425Z,820.07
2024-04-06T00:46:52.424Z,816.08
2024-04-06T00:47:52.417Z,822.09
2024-04-06T00:48:52.441Z,824.61
2024-04-06T00:49:52.401Z,825.63
2024-04-06T00:50:52.370Z,827.16
2024-04-06T00:51:52.377Z,834.37
2024-04-06T00:52:52.382Z,819.57
2024-04-06T00:55:19.763Z,826.65
2024-04-06T00:55:25.638Z,874.67
2024-04-06T00:56:25.657Z,811.63
2024-04-06T00:57:25.608Z,767.03
2024-04-06T00:58:25.610Z,747.77
2024-04-06T00:59:25.636Z,750.28
2024-04-06T01:00:25.639Z,747.85
2024-04-06T01:01:25.582Z,718.16
2024-04-06T01:02:25.613Z,685.79
2024-04-06T01:03:25.544Z,674.05
2024-04-06T01:04:25.548Z,671.34
2024-04-06T01:05:25.512Z,695.05
2024-04-06T01:06:25.545Z,742.88
2024-04-06T01:07:25.537Z,744.53
2024-04-06T01:08:25.530Z,743.70
2024-04-06T01:09:25.494Z,729.91
2024-04-06T01:10:25.484Z,716.63
2024-04-06T01:11:25.477Z,712.81
2024-04-06T01:12:25.518Z,709.79
2024-04-06T01:13:25.446Z,703.08
2024-04-06T01:14:25.447Z,704.56
2024-04-06T01:15:25.407Z,704.56
2024-04-06T01:16:25.418Z,712.81
2024-04-06T01:17:25.405Z,723.60
2024-04-06T01:18:25.429Z,739.59
2024-04-06T01:19:25.431Z,743.70
2024-04-06T01:20:25.378Z,746.93
2024-04-06T01:21:25.366Z,753.66
2024-04-06T01:22:25.324Z,756.63
2024-04-06T01:23:25.337Z,772.33
2024-04-06T01:24:25.329Z,775.46
2024-04-06T01:25:25.390Z,796.20
2024-04-06T01:26:25.335Z,820.58
2024-04-06T01:27:25.292Z,833.85
2024-04-06T01:28:25.286Z,820.58
2024-04-06T01:29:25.296Z,843.30
2024-04-06T01:30:25.271Z,858.97
2024-04-06T01:31:25.281Z,889.18
2024-04-06T01:32:25.260Z,914.05
2024-04-06T01:33:25.231Z,968.21
2024-04-06T01:34:25.231Z,1006.76
2024-04-06T01:35:25.216Z,1052.63
2024-04-06T01:36:25.195Z,1111.11
2024-04-06T01:37:25.252Z,1179.58
2024-04-06T01:38:25.190Z,1217.07
2024-04-06T01:39:25.163Z,1223.74
2024-04-06T01:40:25.154Z,1233.89
2024-04-06T01:41:25.192Z,1228.23
2024-04-06T01:42:25.132Z,1221.51
2024-04-06T01:43:25.165Z,1201.79
2024-04-06T01:44:25.145Z,1166.23
2024-04-06T01:45:25.098Z,1094.77
2024-04-06T01:46:25.087Z,1061.81
2024-04-06T01:47:25.121Z,1015.92
2024-04-06T01:48:25.052Z,974.54
2024-04-06T01:49:25.097Z,951.03
2024-04-06T01:50:25.120Z,927.98
2024-04-06T01:51:25.032Z,912.81
2024-04-06T01:52:25.036Z,896.32
2024-04-06T01:53:25.052Z,891.55
2024-04-06T01:54:24.991Z,889.18
2024-04-06T01:55:24.983Z,872.96
2024-04-06T01:56:25.001Z,904.79
2024-04-06T01:57:24.958Z,919.70
2024-04-06T01:58:24.959Z,939.03
2024-04-06T01:59:24.979Z,936.41
2024-04-06T02:00:24.920Z,966.81
2024-04-06T02:01:24.916Z,1023.68
2024-04-06T02:02:24.916Z,1050.98
2024-04-06T02:03:24.870Z,1047.69
2024-04-06T02:04:24.875Z,1033.95
2024-04-06T02:05:24.927Z,1012.85
2024-04-06T02:06:24.861Z,1005.25
2024-04-06T02:07:24.836Z,1000.00
2024-04-06T02:08:24.858Z,1015.92
2024-04-06T02:09:24.839Z,1015.15
2024-04-06T02:10:24.851Z,1030.77
2024-04-06T02:11:24.834Z,1042.80
2024-04-06T02:12:24.801Z,1065.18
2024-04-06T02:13:24.788Z,1071.14
2024-04-06T02:14:24.777Z,1077.17
2024-04-06T02:15:24.765Z,1064.34
2024-04-06T02:16:24.802Z,1059.29
2024-04-06T02:17:24.771Z,1032.36
2024-04-06T02:18:24.741Z,1012.08
2024-04-06T02:19:24.721Z,983.85
2024-04-06T02:20:24.772Z,959.89
2024-04-06T02:21:24.711Z,935.75
2024-04-06T02:22:24.726Z,896.92
2024-04-06T02:23:24.796Z,863.40
2024-04-06T02:24:24.663Z,840.12
2024-04-06T02:25:24.657Z,845.96
2024-04-06T02:26:24.683Z,864.52
2024-04-06T02:27:24.631Z,914.05
2024-04-06T02:28:24.627Z,987.47
2024-04-06T02:29:24.695Z,1087.66
2024-04-06T02:30:24.607Z,1165.22
2024-04-06T02:31:24.613Z,1250.00
2024-04-06T02:32:24.621Z,1326.73
2024-04-06T02:33:24.571Z,1398.75
2024-04-06T02:34:24.547Z,1424.02
2024-04-06T02:35:24.567Z,1430.10
2024-04-06T02:36:24.551Z,1462.88
2024-04-06T02:37:24.512Z,1492.20
2024-04-06T02:38:24.522Z,1507.31
2024-04-06T02:39:24.504Z,1529.68
2024-04-06T02:40:24.514Z,1542.89
2024-04-06T02:41:24.515Z,1556.33
2024-04-06T02:42:24.497Z,1561.77
2024-04-06T02:43:24.467Z,1549.13
2024-04-06T02:44:24.477Z,1519.27
2024-04-06T02:45:24.446Z,1510.71
2024-04-06T02:46:24.398Z,1437.77
2024-04-06T02:47:24.429Z,1363.17
2024-04-06T02:48:24.453Z,1288.46
2024-04-06T02:49:24.401Z,1230.49
2024-04-06T02:50:24.389Z,1193.23
2024-04-06T02:51:24.368Z,1201.79
2024-04-06T02:52:24.370Z,1228.23
2024-04-06T02:53:24.466Z,1220.40
2024-04-06T02:54:24.352Z,1215.97
2024-04-06T02:55:24.332Z,1167.25
2024-04-06T02:56:24.356Z,1116.67
2024-04-06T02:57:24.322Z,1061.81
2024-04-06T02:58:24.301Z,1015.92
2024-04-06T02:59:24.349Z,1019.01
2024-04-06T03:00:24.251Z,1050.98
2024-04-06T03:01:24.257Z,1091.20
2024-04-06T03:02:24.331Z,1116.67
2024-04-06T03:03:24.270Z,1140.43
2024-04-06T03:04:24.266Z,1102.88
2024-04-06T03:05:24.243Z,1050.98
2024-04-06T03:06:24.208Z,1022.90
2024-04-06T03:07:24.206Z,971.72
2024-04-06T03:08:24.200Z,949.68
2024-04-06T03:09:24.199Z,923.50
2024-04-06T03:10:24.206Z,877.54
2024-04-06T03:11:24.165Z,850.79
2024-04-06T03:12:24.154Z,815.58
2024-04-06T03:13:24.126Z,791.96
2024-04-06T03:14:24.129Z,760.07
2024-04-06T03:15:24.116Z,733.11
2024-04-06T03:16:24.154Z,762.23
2024-04-06T03:17:24.130Z,804.32
2024-04-06T03:18:24.097Z,810.65
2024-04-06T03:19:24.062Z,843.83
2024-04-06T03:20:24.070Z,858.97
2024-04-06T03:21:24.055Z,886.24
2024-04-06T03:22:24.043Z,898.72
2024-04-06T03:23:24.096Z,917.18
2024-04-06T03:24:24.023Z,956.46
2024-04-06T03:25:24.023Z,971.72
2024-04-06T03:26:23.995Z,983.85
2024-04-06T03:27:23.964Z,966.11
2024-04-06T03:28:23.980Z,937.72
2024-04-06T03:29:24.000Z,926.69
2024-04-06T03:30:23.983Z,906.63
2024-04-06T03:31:23.955Z,914.05
2024-04-06T03:32:23.966Z,924.78
2024-04-06T03:33:23.936Z,904.79
2024-04-06T03:34:23.927Z,894.53
2024-04-06T03:35:23.927Z,854.05
2024-04-06T03:36:26.026Z,859.53
2024-04-06T03:37:23.895Z,851.88
2024-04-06T03:38:23.910Z,861.18
2024-04-06T03:39:23.868Z,883.91
2024-04-06T03:40:23.863Z,899.93
2024-04-06T03:41:23.840Z,911.56
2024-04-06T03:42:23.826Z,926.05
2024-04-06T03:43:23.808Z,926.05
2024-04-06T03:44:23.863Z,924.78
2024-04-06T03:45:23.804Z,902.36
2024-04-06T03:46:23.764Z,885.66
2024-04-06T03:47:23.806Z,882.16
2024-04-06T03:48:23.762Z,883.91
2024-04-06T03:49:23.782Z,899.33
2024-04-06T03:50:23.758Z,896.92
2024-04-06T03:51:23.731Z,898.72
2024-04-06T03:52:23.706Z,898.12
2024-04-06T03:53:23.711Z,901.75
2024-04-06T03:54:23.720Z,869.57
2024-04-06T03:55:23.688Z,850.79
2024-04-06T03:56:23.665Z,840.12
2024-04-06T03:57:23.672Z,810.65
2024-04-06T03:58:23.645Z,798.09
2024-04-06T03:59:23.643Z,797.14
2024-04-06T04:00:23.650Z,783.17
2024-04-06T04:01:23.611Z,771.00
2024-04-06T04:02:23.605Z,792.90
2024-04-06T04:03:23.590Z,802.40
2024-04-06T04:04:23.584Z,792.90
2024-04-06T04:05:23.578Z,771.00
2024-04-06T04:06:23.616Z,762.23
2024-04-06T04:07:23.552Z,744.53
2024-04-06T04:08:23.563Z,724.38
2024-04-06T04:09:23.548Z,689.32
2024-04-06T04:10:23.519Z,637.46
2024-04-06T04:11:23.525Z,618.60
2024-04-06T04:12:23.555Z,581.02
2024-04-06T04:13:23.488Z,575.52
2024-04-06T04:14:23.476Z,598.15
2024-04-06T04:15:23.469Z,626.13
2024-04-06T04:16:23.459Z,653.01
2024-04-06T04:17:23.441Z,682.29
2024-04-06T04:18:23.435Z,722.82
2024-04-06T04:19:23.436Z,760.07
2024-04-06T04:20:23.416Z,767.91
2024-04-06T04:21:23.402Z,767.03
2024-04-06T04:22:24.548Z,765.28
2024-04-06T04:23:23.381Z,773.67
2024-04-06T04:24:23.385Z,792.90
2024-04-06T04:25:23.357Z,800.96
2024-04-06T04:26:23.355Z,789.63
2024-04-06T04:27:23.323Z,779.98
2024-04-06T04:28:23.326Z,781.34
2024-04-06T04:29:23.327Z,769.67
2024-04-06T04:30:23.306Z,737.96
2024-04-06T04:31:23.303Z,705.30
2024-04-06T04:32:23.263Z,681.60
2024-04-06T04:33:23.262Z,664.02
2024-04-06T04:34:23.287Z,661.39
2024-04-06T04:35:23.251Z,678.15
2024-04-06T04:36:23.254Z,703.82
2024-04-06T04:37:23.216Z,711.30
2024-04-06T04:38:23.219Z,709.04
2024-04-06T04:39:23.206Z,720.48
2024-04-06T04:40:23.213Z,729.12
2024-04-06T04:41:23.195Z,735.53
2024-04-06T04:42:23.175Z,717.40
2024-04-06T04:43:23.164Z,697.22
2024-04-06T04:44:35.855Z,678.15
2024-04-06T04:45:23.137Z,653.01
2024-04-06T04:46:23.132Z,625.54
2024-04-06T04:47:23.117Z,602.46
2024-04-06T04:48:23.078Z,583.55
2024-04-06T04:49:23.099Z,581.02
2024-04-06T04:50:23.077Z,584.57
2024-04-06T04:51:23.114Z,578.01
2024-04-06T04:52:23.071Z,561.05
2024-04-06T04:53:23.051Z,548.63
2024-04-06T04:54:23.038Z,541.97
2024-04-06T04:55:24.915Z,533.33
2024-04-06T04:56:23.015Z,522.91
2024-04-06T04:57:23.036Z,520.07
2024-04-06T04:58:22.999Z,505.15
2024-04-06T04:59:22.983Z,498.76
2024-04-06T05:00:22.971Z,488.21
2024-04-06T05:01:22.968Z,491.79
2024-04-06T05:02:22.952Z,495.43
2024-04-06T05:03:22.982Z,530.79
2024-04-06T05:04:22.928Z,524.14
2024-04-06T05:05:22.913Z,535.46
2024-04-06T05:06:22.907Z,554.54
2024-04-06T05:07:22.940Z,545.06
2024-04-06T05:08:22.877Z,546.84
2024-04-06T05:09:22.904Z,527.86
2024-04-06T05:10:22.866Z,529.11
2024-04-06T05:11:22.852Z,552.71
2024-04-06T05:12:22.844Z,555.46
2024-04-06T05:13:22.856Z,582.03
2024-04-06T05:14:22.817Z,585.59
2024-04-06T05:15:22.797Z,604.63
2024-04-06T05:16:22.808Z,606.83
2024-04-06T05:17:22.783Z,593.90
2024-04-06T05:18:22.825Z,574.53
2024-04-06T05:19:22.755Z,554.54
2024-04-06T05:20:22.761Z,541.97
2024-04-06T05:21:22.744Z,534.18
2024-04-06T05:22:22.743Z,528.28
2024-04-06T05:23:22.721Z,520.88
2024-04-06T05:24:22.722Z,509.38
2024-04-06T05:25:22.690Z,508.22
2024-04-06T05:26:22.696Z,521.69
2024-04-06T05:27:22.679Z,542.41
2024-04-06T05:28:22.663Z,567.71
2024-04-06T05:29:22.664Z,600.84
2024-04-06T05:30:22.685Z,644.21
2024-04-06T05:31:22.641Z,711.30
2024-04-06T05:32:22.622Z,762.66
2024-04-06T05:33:22.612Z,816.58
2024-04-06T05:34:22.602Z,855.68
2024-04-06T05:35:22.594Z,876.39
2024-04-06T05:36:22.600Z,884.49
2024-04-06T05:37:22.559Z,871.83
2024-04-06T05:38:22.557Z,860.08
2024-04-06T05:39:22.548Z,845.42
2024-04-06T05:40:22.564Z,817.07
2024-04-06T05:41:22.563Z,747.85
2024-04-06T05:42:22.514Z,702.34
2024-04-06T05:43:22.504Z,664.68
2024-04-06T05:44:22.498Z,626.13
2024-04-06T05:45:22.483Z,595.49
2024-04-06T05:46:22.533Z,557.78
2024-04-06T05:47:22.486Z,520.07
2024-04-06T05:48:22.483Z,486.08
2024-04-06T05:49:22.444Z,466.43
2024-04-06T05:50:22.435Z,444.15
2024-04-06T05:51:22.411Z,413.93
2024-04-06T05:52:22.453Z,388.92
2024-04-06T05:53:22.405Z,364.48
2024-04-06T05:54:22.378Z,338.97
2024-04-06T05:55:22.367Z,321.75
2024-04-06T05:56:22.373Z,313.78
2024-04-06T05:57:22.376Z,320.19
2024-04-06T05:58:22.345Z,317.72
2024-04-06T05:59:22.326Z,325.89
2024-04-06T06:00:22.363Z,332.13
2024-04-06T06:01:22.298Z,335.52
2024-04-06T06:02:22.297Z,335.18
2024-04-06T06:03:22.314Z,333.14
2024-04-06T06:04:22.278Z,336.89
2024-04-06T06:05:22.276Z,343.93
2024-04-06T06:06:22.263Z,341.08
2024-04-06T06:07:22.262Z,347.92
2024-04-06T06:08:22.266Z,346.82
2024-04-06T06:09:22.250Z,362.08
2024-04-06T06:10:22.226Z,350.52
2024-04-06T06:11:22.220Z,336.55
2024-04-06T06:12:22.181Z,343.93
2024-04-06T06:13:22.167Z,367.74
2024-04-06T06:14:23.742Z,366.92
2024-04-06T06:15:22.158Z,348.29
2024-04-06T06:16:22.144Z,336.89
2024-04-06T06:17:22.142Z,332.80
2024-04-06T06:18:22.133Z,341.79
2024-04-06T06:19:22.170Z,350.52
2024-04-06T06:20:22.114Z,358.53
2024-04-06T06:21:22.072Z,364.08
2024-04-06T06:22:22.061Z,340.72
2024-04-06T06:23:22.077Z,335.86
2024-04-06T06:24:22.052Z,340.37
2024-04-06T06:25:22.130Z,326.86
2024-04-06T06:26:22.036Z,342.50
2024-04-06T06:27:22.019Z,364.08
2024-04-06T06:28:22.021Z,405.90
2024-04-06T06:29:22.008Z,424.70
2024-04-06T06:30:22.019Z,452.56
2024-04-06T06:31:22.017Z,473.36
2024-04-06T06:32:21.982Z,475.04
2024-04-06T06:33:22.054Z,459.39
2024-04-06T06:34:22.006Z,456.26
2024-04-06T06:35:21.957Z,480.15
2024-04-06T06:38:21.937Z,553.16
2024-04-06T06:41:21.871Z,570.13
2024-04-06T06:42:21.843Z,575.52
2024-04-06T06:43:21.867Z,566.27
2024-04-06T06:44:21.818Z,607.93
2024-04-06T06:45:21.854Z,645.45
2024-04-06T06:46:21.830Z,632.64
2024-04-06T06:47:21.790Z,642.35
2024-04-06T06:48:21.795Z,646.70
2024-04-06T06:49:21.780Z,658.14
2024-04-06T06:50:21.798Z,674.73
2024-04-06T06:51:21.769Z,676.78
2024-04-06T06:52:21.770Z,692.89
2024-04-06T06:53:21.767Z,709.79
2024-04-06T06:54:21.732Z,737.96
2024-04-06T06:55:21.712Z,725.17
2024-04-06T06:56:21.735Z,738.78
2024-04-06T06:57:21.691Z,752.81
2024-04-06T06:58:21.650Z,762.66
2024-04-06T06:59:21.700Z,788.70
2024-04-06T07:00:21.666Z,812.61
2024-04-06T07:01:21.631Z,812.12
2024-04-06T07:02:21.672Z,809.67
2024-04-06T07:03:21.630Z,799.52
2024-04-06T07:04:21.618Z,798.57
2024-04-06T07:05:21.592Z,785.00
2024-04-06T07:07:21.562Z,792.43
2024-04-06T07:08:21.619Z,806.26
2024-04-06T07:09:21.563Z,768.79
2024-04-06T07:10:21.555Z,775.46
2024-04-06T07:11:21.581Z,813.60
2024-04-06T07:12:21.527Z,869.00
2024-04-06T07:13:21.517Z,913.43
2024-04-06T07:14:21.526Z,948.34
2024-04-06T07:15:21.491Z,988.20
2024-04-06T07:16:21.468Z,994.80
2024-04-06T07:17:23.558Z,952.38
2024-04-06T07:18:21.468Z,949.68
2024-04-06T07:19:21.450Z,939.03
2024-04-06T07:20:21.458Z,940.35
2024-04-06T07:21:21.461Z,931.85
2024-04-06T07:22:21.443Z,922.86
2024-04-06T07:23:21.401Z,895.12
2024-04-06T07:24:21.381Z,858.42
2024-04-06T07:25:21.387Z,825.63
2024-04-06T07:26:21.394Z,804.32
2024-04-06T07:27:21.346Z,782.71
2024-04-06T07:28:21.337Z,802.40
2024-04-06T07:29:21.329Z,858.42
2024-04-06T07:30:21.305Z,945.66
2024-04-06T07:31:21.306Z,1059.29
2024-04-06T07:32:21.337Z,1086.78
2024-04-06T07:33:21.289Z,1096.56
2024-04-06T07:34:21.296Z,1108.35
2024-04-06T07:35:21.256Z,1119.46
2024-04-06T07:36:21.266Z,1159.17
2024-04-06T07:37:21.291Z,1105.61
2024-04-06T07:38:21.244Z,1041.18
2024-04-06T07:39:21.241Z,1029.98
2024-04-06T07:40:24.012Z,990.39
2024-04-06T07:41:21.216Z,994.80
2024-04-06T07:42:21.198Z,949.68
2024-04-06T07:43:21.224Z,949.68
2024-04-06T07:44:21.195Z,969.61
2024-04-06T07:45:21.172Z,1033.15
2024-04-06T07:46:21.143Z,1073.72
2024-04-06T07:47:21.129Z,1112.03
2024-04-06T07:48:21.116Z,1161.18
2024-04-06T07:49:21.164Z,1203.95
2024-04-06T07:50:21.109Z,1233.89
2024-04-06T07:51:21.103Z,1289.70
2024-04-06T07:52:21.082Z,1356.28
2024-04-06T07:53:21.067Z,1394.38
2024-04-06T07:54:21.077Z,1410.53
2024-04-06T07:55:21.055Z,1409.04
2024-04-06T07:56:21.046Z,1361.79
2024-04-06T07:57:21.020Z,1338.66
2024-04-06T07:58:21.033Z,1328.05
2024-04-06T07:59:21.035Z,1360.41
2024-04-06T08:00:21.016Z,1341.34
2024-04-06T08:01:20.997Z,1346.73
2024-04-06T08:02:20.981Z,1372.95
2024-04-06T08:03:20.997Z,1348.09
2024-04-06T08:04:21.075Z,1335.99
2024-04-06T08:05:20.982Z,1298.45
2024-04-06T08:06:20.961Z,1311.15
2024-04-06T08:07:20.945Z,1320.20
2024-04-06T08:08:20.948Z,1309.87
2024-04-06T08:09:20.910Z,1278.63
2024-04-06T08:10:20.918Z,1290.94
2024-04-06T08:11:20.893Z,1344.03
2024-04-06T08:12:20.898Z,1321.50
2024-04-06T08:13:20.858Z,1297.19
2024-04-06T08:14:25.246Z,1324.11
2024-04-06T08:15:20.841Z,1412.01
2024-04-06T08:16:20.867Z,1406.09
2024-04-06T08:17:20.810Z,1406.09
2024-04-06T08:18:20.805Z,1490.55
2024-04-06T08:19:20.785Z,1561.77
2024-04-06T08:20:20.781Z,1528.81
2024-04-06T08:21:20.778Z,1552.72
2024-04-06T08:22:20.801Z,1545.56
2024-04-06T08:23:20.751Z,1567.25
2024-04-06T08:24:20.737Z,1612.52
2024-04-06T08:25:20.726Z,1738.00
2024-04-06T08:26:20.751Z,1926.67
2024-04-06T08:27:20.705Z,2042.68
2024-04-06T08:28:20.750Z,1959.06
2024-04-06T08:29:20.699Z,1973.49
2024-04-06T08:30:20.686Z,1872.82
2024-04-06T08:31:20.667Z,1966.25
2024-04-06T08:32:20.640Z,2170.04
2024-04-06T08:33:20.637Z,2205.76
2024-04-06T08:34:20.688Z,2332.46
2024-04-06T08:35:20.626Z,2401.43
2024-04-06T08:36:20.632Z,2369.58
2024-04-06T08:37:20.596Z,2302.41
2024-04-06T08:38:23.649Z,2128.67
2024-04-06T08:39:20.598Z,2058.37
2024-04-06T08:40:20.596Z,2092.11
2024-04-06T08:41:20.547Z,2324.37
2024-04-06T08:42:20.547Z,2460.97
2024-04-06T08:43:20.540Z,2530.69
2024-04-06T08:44:23.016Z,2720.81
2024-04-06T08:45:20.519Z,2734.69
2024-04-06T08:46:20.532Z,2785.86
2024-04-06T08:47:20.511Z,2881.72
2024-04-06T08:48:20.497Z,3014.62
2024-04-06T08:49:20.477Z,3219.22
2024-04-06T08:50:23.176Z,3248.48
2024-04-06T08:51:20.468Z,3107.25
2024-04-06T08:52:20.466Z,2977.78
2024-04-06T08:53:20.427Z,2712.55
2024-04-06T08:54:20.437Z,2509.36
2024-04-06T08:55:20.408Z,2259.70
2024-04-06T08:56:20.395Z,2116.90
2024-04-06T08:57:20.413Z,2145.72
2024-04-06T08:58:20.370Z,2205.76
2024-04-06T08:59:20.357Z,2079.13
2024-04-06T09:00:20.345Z,1953.35
2024-04-06T09:01:20.332Z,1915.65
2024-04-06T09:02:22.429Z,2074.30
2024-04-06T09:03:20.345Z,2173.56
2024-04-06T09:04:20.304Z,2231.47
2024-04-06T09:05:20.305Z,2222.22
2024-04-06T09:06:20.305Z,2318.34
2024-04-06T09:07:20.286Z,2300.43
2024-04-06T09:08:22.354Z,2263.51
2024-04-06T09:09:20.296Z,2170.04
2024-04-06T09:10:20.237Z,2248.32
2024-04-06T09:11:20.230Z,2342.66
2024-04-06T09:12:20.250Z,2207.58
2024-04-06T09:13:20.220Z,2125.30
2024-04-06T09:14:22.424Z,2187.75
2024-04-06T09:15:20.234Z,2187.75
2024-04-06T09:16:20.175Z,2296.49
2024-04-06T09:17:20.180Z,2371.68
2024-04-06T09:18:20.207Z,2332.46
2024-04-06T09:19:20.161Z,2257.79
2024-04-06T09:20:20.191Z,2213.05
2024-04-06T09:21:20.126Z,2200.33
2024-04-06T09:22:20.110Z,2320.35
2024-04-06T09:23:20.106Z,2472.32
2024-04-06T09:24:20.124Z,2574.45
2024-04-06T09:25:20.115Z,2434.15
2024-04-06T09:26:21.432Z,2034.93
2024-04-06T09:27:20.071Z,1719.05
2024-04-06T09:28:20.057Z,1601.91
2024-04-06T09:29:20.059Z,1584.86
2024-04-06T09:30:20.035Z,1430.10
2024-04-06T09:31:20.067Z,1523.59
2024-04-06T09:32:21.858Z,1727.92
2024-04-06T09:33:19.990Z,1708.09
2024-04-06T09:34:20.003Z,1678.15
2024-04-06T09:35:19.980Z,1485.59
2024-04-06T09:36:19.995Z,1442.41
2024-04-06T09:37:20.020Z,1450.22
2024-04-06T09:38:21.891Z,1503.08
2024-04-06T09:39:19.956Z,1723.47
2024-04-06T09:40:19.985Z,1845.73
2024-04-06T09:41:19.938Z,1903.41
2024-04-06T09:42:19.924Z,1685.53
2024-04-06T09:43:19.946Z,1630.17
2024-04-06T09:44:22.313Z,1528.81
2024-04-06T09:45:19.899Z,1561.77
2024-04-06T09:46:19.927Z,1503.93
2024-04-06T09:47:19.887Z,1567.25
2024-04-06T09:48:19.882Z,1507.31
2024-04-06T09:49:19.958Z,1500.56
2024-04-06T09:50:21.901Z,1538.46
2024-04-06T09:51:19.864Z,1582.05
2024-04-06T09:52:19.905Z,1790.25
2024-04-06T09:53:19.823Z,1790.25
2024-04-06T09:54:19.851Z,1908.83
2024-04-06T09:55:19.857Z,1980.78
2024-04-06T09:56:21.810Z,1973.49
2024-04-06T09:57:19.817Z,1816.95
2024-04-06T09:58:19.784Z,1594.29
2024-04-06T09:59:19.737Z,1485.59
2024-04-06T10:00:19.817Z,1638.14
2024-04-06T10:01:19.866Z,1562.68
2024-04-06T10:02:20.870Z,1513.27
2024-04-06T10:03:19.698Z,1532.30
2024-04-06T10:04:19.698Z,1425.53
2024-04-06T10:05:19.677Z,1428.57
2024-04-06T10:06:19.736Z,1475.77
2024-04-06T10:07:19.701Z,1520.14
2024-04-06T10:08:21.286Z,1988.13
2024-04-06T10:09:19.651Z,1828.10
2024-04-06T10:10:19.633Z,1581.12
2024-04-06T10:11:19.693Z,1567.25
2024-04-06T10:12:19.597Z,1606.71
2024-04-06T10:13:19.660Z,1520.14
2024-04-06T10:14:19.588Z,1506.46
2024-04-06T10:15:19.571Z,1768.98
2024-04-06T10:16:19.588Z,2053.64
2024-04-06T10:17:19.554Z,2064.71
2024-04-06T10:18:19.553Z,1932.23
2024-04-06T10:19:19.594Z,1840.66
2024-04-06T10:20:19.521Z,1781.92
2024-04-06T10:21:19.526Z,1829.35
2024-04-06T10:22:19.512Z,1906.12
2024-04-06T10:23:19.531Z,1818.18
2024-04-06T10:24:19.498Z,2095.39
2024-04-06T10:25:19.571Z,1946.26
2024-04-06T10:26:19.463Z,2010.50
2024-04-06T10:27:19.460Z,2630.03
2024-04-06T10:28:19.459Z,2909.88
2024-04-06T10:29:19.431Z,2948.29
2024-04-06T10:30:19.434Z,2332.46
2024-04-06T10:31:22.289Z,1936.42
2024-04-06T10:32:19.404Z,1523.59
2024-04-06T10:33:19.403Z,1646.19
2024-04-06T10:34:19.415Z,1640.15
2024-04-06T10:35:19.392Z,1566.33
2024-04-06T10:36:19.357Z,1498.88
2024-04-06T10:37:19.467Z,1253.51
2024-04-06T10:38:19.329Z,1054.29
2024-04-06T10:39:19.326Z,615.19
2024-04-06T10:40:19.327Z,625.54
2024-04-06T10:41:19.316Z,744.53
2024-04-06T10:42:19.332Z,733.91
2024-04-06T10:43:19.332Z,504.39
2024-04-06T10:44:19.282Z,535.46
2024-04-06T10:45:19.269Z,427.14
2024-04-06T10:46:19.324Z,433.22
2024-04-06T10:47:19.238Z,563.88
2024-04-06T10:48:19.268Z,188.35
2024-04-06T10:49:19.277Z,103.27
2024-04-06T10:50:19.237Z,88.69
2024-04-06T10:51:19.218Z,63.15
2024-04-06T10:52:19.252Z,67.91
2024-04-06T10:53:19.190Z,72.37
2024-04-06T10:54:19.213Z,82.90
2024-04-06T10:55:19.235Z,95.61
2024-04-06T10:56:19.163Z,111.74
2024-04-06T10:57:19.160Z,131.58
2024-04-06T10:58:19.153Z,146.42
2024-04-06T10:59:19.177Z,167.00
2024-04-06T11:00:19.119Z,174.48
2024-04-06T11:01:19.147Z,181.67
2024-04-06T11:02:19.096Z,193.89
2024-04-06T11:03:19.102Z,141.11
2024-04-06T11:04:19.147Z,99.11
2024-04-06T11:05:19.078Z,49.58
2024-04-06T11:06:19.061Z,45.71
2024-04-06T11:07:19.092Z,56.08
2024-04-06T11:08:19.036Z,59.60
2024-04-06T11:09:19.048Z,68.24
2024-04-06T11:10:19.129Z,72.68
2024-04-06T11:11:19.021Z,70.24
2024-04-06T11:12:19.018Z,78.54
2024-04-06T11:13:19.055Z,76.25
2024-04-06T11:14:18.987Z,91.80
2024-04-06T11:15:18.976Z,105.08
2024-04-06T11:16:19.116Z,95.17
2024-04-06T11:17:18.965Z,87.21
2024-04-06T11:18:18.945Z,64.86
2024-04-06T11:19:18.950Z,68.86
2024-04-06T11:20:18.921Z,77.81
2024-04-06T11:21:18.944Z,85.26
2024-04-06T11:22:18.936Z,94.07
2024-04-06T11:23:18.921Z,93.23
2024-04-06T11:24:18.900Z,95.50
2024-04-06T11:25:18.962Z,112.04
2024-04-06T11:26:18.863Z,131.99
2024-04-06T11:27:18.897Z,156.69
2024-04-06T11:28:18.893Z,173.93
2024-04-06T11:29:18.839Z,169.88
2024-04-06T11:30:18.842Z,185.49
2024-04-06T11:31:18.923Z,202.10
2024-04-06T11:32:18.801Z,196.44
2024-04-06T11:33:18.835Z,194.92
2024-04-06T11:34:18.852Z,201.85
2024-04-06T11:35:18.783Z,213.36
2024-04-06T11:36:18.762Z,221.99
2024-04-06T11:37:18.806Z,260.23
2024-04-06T11:38:18.787Z,273.18
2024-04-06T11:39:18.748Z,305.34
2024-04-06T11:40:18.750Z,305.91
2024-04-06T11:41:18.722Z,312.29
2024-04-06T11:42:18.714Z,330.80
2024-04-06T11:43:18.745Z,341.79
2024-04-06T11:44:18.736Z,337.23
2024-04-06T11:45:18.713Z,331.13
2024-04-06T11:46:18.675Z,324.92
2024-04-06T11:47:18.652Z,347.92
2024-04-06T11:48:18.656Z,411.89
2024-04-06T11:49:18.657Z,441.22
2024-04-06T11:50:18.672Z,452.86
2024-04-06T11:51:18.629Z,426.87
2024-04-06T11:52:18.645Z,392.57
2024-04-06T11:53:18.591Z,385.56
2024-04-06T11:54:18.795Z,379.01
2024-04-06T11:55:18.723Z,394.42
2024-04-06T11:56:18.596Z,414.19
2024-04-06T11:57:18.551Z,444.44
2024-04-06T11:58:18.541Z,486.08
2024-04-06T11:59:18.552Z,509.77
2024-04-06T12:00:20.993Z,544.61
2024-04-06T12:01:18.570Z,595.49
2024-04-06T12:02:18.573Z,619.75
2024-04-06T12:03:18.499Z,584.57
2024-04-06T12:04:18.489Z,579.01
2024-04-06T12:05:18.486Z,561.05
2024-04-06T12:06:18.464Z,624.38
2024-04-06T12:07:18.516Z,601.38
2024-04-06T12:08:18.492Z,554.08
2024-04-06T12:09:18.430Z,599.22
2024-04-06T12:10:18.494Z,638.07
2024-04-06T12:11:18.420Z,656.21
2024-04-06T12:12:18.411Z,648.58
2024-04-06T12:13:18.429Z,630.85
2024-04-06T12:14:18.377Z,611.26
2024-04-06T12:15:18.374Z,612.94
2024-04-06T12:16:18.403Z,632.04
2024-04-06T12:17:18.343Z,609.59
2024-04-06T12:18:18.399Z,605.18
2024-04-06T12:19:18.344Z,659.44
2024-04-06T12:20:18.365Z,668.66
2024-04-06T12:21:18.314Z,759.64
2024-04-06T12:22:18.339Z,782.71
2024-04-06T12:23:18.291Z,785.00
2024-04-06T12:24:18.317Z,756.63
2024-04-06T12:25:18.317Z,781.80
2024-04-06T12:26:18.261Z,782.25
2024-04-06T12:27:18.277Z,792.43